Terminal Aerodrome Forecast
Issued by NWS Corpus Christi, TX

Home | Current Version | Previous Version | Text Only | Print | Product List | Glossary On
Versions: 1 2 3 4 5 6 7 8 9 10 11 12 13 14 15 16 17
000
FTUS44 KCRP 221120
TAFVCT
TAF
KVCT 221120Z 2212/2312 09003KT P6SM VCSH BKN009
     FM221600 12011KT P6SM VCTS BKN030CB
     FM230100 12008KT P6SM SCT015 BKN030
     FM230400 10006KT P6SM BKN015=

USA.gov is the U.S. government's official web portal to all federal, state and local government web resources and services.